Bookmark and Share
Track history (hours):
 

M.v. Eleni G

Last reported at 2013-May-24 04:14 UTC. Time now 2014-Apr-20 05:59 UTC.
Position N 31°56' E 120°09'.
Warning: this ship's position is months out of date.

Length 174 m; draft 10.7 m.

Type: Cargo ship. MMSI: 248284000.

NotesDate/timePositionNaut miles runAvg speedWind from/ knotsBaromVisibWave heightAir tempDewpointWater temp
2013-May-24 04:14N 31°56' E 120°09'0 0.0
2013-May-23 20:14N 31°57' E 120°09'0 0.1
2013-May-23 19:08N 31°57' E 120°09'0 0.0
2013-May-23 18:32N 31°56' E 120°09'0 0.1
2013-May-23 17:32N 31°56' E 120°09'0 0.1
2013-May-23 16:32N 31°56' E 120°09'0 0.0
2013-May-23 15:32N 31°56' E 120°09'0 0.0
2013-May-23 14:29N 31°56' E 120°09'0 0.0
2013-May-23 13:26N 31°56' E 120°09'0 0.0
2013-May-23 12:17N 31°56' E 120°09'0 0.0
2013-May-23 11:26N 31°56' E 120°09'0 0.0
2013-May-23 09:11N 31°56' E 120°09'0 0.0
2013-May-23 08:26N 31°56' E 120°09'0 0.1
2013-May-23 07:23N 31°56' E 120°09'0 0.1
2013-May-23 06:23N 31°56' E 120°09'0 0.0
2013-May-23 02:17N 31°56' E 120°09'0 0.0
2013-May-23 01:23N 31°56' E 120°09'0 0.0
2013-May-22 21:11N 31°56' E 120°09'0 0.1
2013-May-22 19:23N 31°56' E 120°09'0 0.1
2013-May-22 18:17N 31°56' E 120°09'0 0.1
2013-May-22 17:14N 31°57' E 120°09'0 0.1
2013-May-22 15:17N 31°56' E 120°09'0 0.0
2013-May-22 14:29N 31°56' E 120°09'0 0.0
2013-May-22 13:11N 31°56' E 120°09'0 0.0
2013-May-22 09:17N 31°56' E 120°09'0 0.0
2013-May-22 07:32N 31°56' E 120°09'0 0.0
2013-May-22 06:11N 31°56' E 120°09'0 0.0
2013-May-22 02:29N 31°56' E 120°09'0 0.0
2013-May-22 01:11N 31°56' E 120°09'0 0.0
2013-May-21 23:11N 31°56' E 120°09'0 0.0
2013-May-21 16:29N 31°57' E 120°09'0 0.1
2013-May-21 14:23N 31°56' E 120°09'0 0.0
2013-May-21 13:17N 31°56' E 120°09'0 0.0
2013-May-21 11:23N 31°56' E 120°09'0 0.0
2013-May-21 08:29N 31°56' E 120°09'0 0.0
2013-May-21 05:29N 31°56' E 120°09'1 0.9
2013-May-21 04:31N 31°56' E 120°09'0 0.0
2013-May-20 21:28N 31°56' E 120°09'0 0.0
2013-May-20 20:13N 31°56' E 120°09'0 0.0
2013-May-20 19:13N 31°56' E 120°09'0 0.0
2013-May-20 02:28N 31°56' E 120°09'0 0.0
2013-May-20 01:31N 31°56' E 120°09'0 0.0
2013-May-19 22:19N 31°56' E 120°09'0 0.0
2013-May-19 19:32N 31°56' E 120°09'0 0.0
2013-May-19 16:25N 31°56' E 120°09'0 0.0
2013-May-19 15:13N 31°56' E 120°09'0 0.0
2013-May-19 12:33N 31°56' E 120°09'6 6.2
2013-May-19 11:33N 31°57' E 120°16'7 7.2
2013-May-19 10:33N 31°58' E 120°24'6 5.5
2013-May-19 09:33N 32°02' E 120°29'7 7.5
2013-May-19 08:33N 31°60' E 120°37'7 7.3
2013-May-19 07:33N 32°01' E 120°46'41 2.0
2013-May-18 11:23N 31°33' E 121°20'8 9.3
2013-May-18 10:32N 31°28' E 121°28'9 8.7
2013-May-18 09:32N 31°23' E 121°36'49 8.0
2013-May-18 03:23N 31°06' E 122°30'21 0.6
2013-May-16 19:23N 30°57' E 122°52'910.8
2013-May-16 18:33N 30°48' E 122°55'1111.3
2013-May-16 17:33N 30°38' E 123°01'1111.4
2013-May-16 16:33N 30°28' E 123°08'2 0.8
2013-May-16 14:18N 30°27' E 123°09'17 9.5
2013-May-16 12:33N 30°10' E 123°10'1110.7
2013-May-16 11:33N 29°59' E 123°09'1111.2
2013-May-16 10:33N 29°48' E 123°07'1211.4
2013-May-16 09:33N 29°37' E 123°05'1211.4
2013-May-16 08:32N 29°25' E 123°04'1111.7
2013-May-16 07:33N 29°14' E 123°02'  

Dump ship's entire track history

sailing weather and tide predictions

M.v. Eleni G — 9HYH5 — position and weather